Time;durP1;ratioP1;P1;durP2;ratioP2;P2;SDS_P1;SDS_P2;PMS_P1;PMS_P2;Temp;Humidity;BMP_temperature;BMP_pressure;BME280_temperature;BME280_humidity;BME280_pressure;Samples;Min_cycle;Max_cycle;Signal;HPM_P1;HPM_P2
2021/10/21 00:00:37;;;;;;;3.70;2.22;;;19.50;67.10;;;;;;2321099;54;20976;-71
2021/10/21 00:03:04;;;;;;;4.15;2.30;;;19.40;67.30;;;;;;2346140;53;20973;-74
2021/10/21 00:05:30;;;;;;;4.18;2.53;;;19.40;67.60;;;;;;2321493;54;21012;-74
2021/10/21 00:07:56;;;;;;;3.60;2.37;;;19.40;68.00;;;;;;2316811;54;21008;-73
2021/10/21 00:10:23;;;;;;;3.40;2.08;;;19.40;68.30;;;;;;2598482;52;21411;-72
2021/10/21 00:12:49;;;;;;;3.87;2.45;;;19.30;68.50;;;;;;2348427;53;21516;-71
2021/10/21 00:15:15;;;;;;;3.50;2.08;;;19.30;68.90;;;;;;2365271;52;20983;-75
2021/10/21 00:17:42;;;;;;;3.35;2.17;;;19.20;69.10;;;;;;2353939;53;21747;-73
2021/10/21 00:20:10;;;;;;;3.85;2.20;;;19.20;69.40;;;;;;2547345;52;20962;-73
2021/10/21 00:22:38;;;;;;;3.87;2.17;;;19.20;69.60;;;;;;2347895;53;21057;-73
2021/10/21 00:25:06;;;;;;;3.15;1.87;;;19.20;69.90;;;;;;2355663;53;21408;-73
2021/10/21 00:27:32;;;;;;;4.70;2.40;;;19.20;70.10;;;;;;2348469;53;21006;-70
2021/10/21 00:29:59;;;;;;;4.47;2.78;;;19.20;70.30;;;;;;2356763;53;21046;-73
2021/10/21 00:32:26;;;;;;;4.60;2.70;;;19.20;70.40;;;;;;2342766;53;20974;-73
2021/10/21 00:34:52;;;;;;;4.12;2.58;;;19.20;70.50;;;;;;2380202;53;21058;-72
2021/10/21 00:37:19;;;;;;;4.10;2.25;;;19.20;70.60;;;;;;2339818;53;20949;-74
2021/10/21 00:39:50;;;;;;;4.07;2.45;;;19.20;70.80;;;;;;2395678;53;20988;-73
2021/10/21 00:42:17;;;;;;;5.45;2.45;;;19.20;70.80;;;;;;2328395;54;21765;-73
2021/10/21 00:44:43;;;;;;;4.80;2.22;;;19.10;70.80;;;;;;2349255;53;20978;-72
2021/10/21 00:47:10;;;;;;;4.03;2.50;;;19.10;70.90;;;;;;2351642;53;21007;-73
2021/10/21 00:49:36;;;;;;;5.35;2.20;;;19.10;71.10;;;;;;2563874;53;20987;-73
2021/10/21 00:52:03;;;;;;;3.87;2.10;;;19.00;71.10;;;;;;2338438;53;22084;-74
2021/10/21 00:54:30;;;;;;;4.15;2.58;;;19.00;71.30;;;;;;2328331;54;21694;-74
2021/10/21 00:56:56;;;;;;;3.50;2.05;;;19.00;71.40;;;;;;2325234;54;20945;-73
2021/10/21 00:59:23;;;;;;;3.10;1.52;;;19.00;71.50;;;;;;2318113;54;20928;-74
2021/10/21 01:01:51;;;;;;;4.15;2.30;;;19.00;71.60;;;;;;2324772;54;20977;-74
2021/10/21 01:04:18;;;;;;;3.50;1.70;;;18.90;71.50;;;;;;2329620;54;21079;-73
2021/10/21 01:06:45;;;;;;;4.45;2.10;;;18.90;71.60;;;;;;2347805;53;20930;-73
2021/10/21 01:09:11;;;;;;;3.00;1.70;;;18.90;71.70;;;;;;2359406;53;20978;-72
2021/10/21 01:11:42;;;;;;;4.10;1.90;;;18.80;71.70;;;;;;2469580;53;21022;-75
2021/10/21 01:14:08;;;;;;;3.00;1.58;;;18.80;71.90;;;;;;2381090;53;21523;-73
2021/10/21 01:16:39;;;;;;;4.70;1.80;;;18.80;72.10;;;;;;2357289;53;21818;-73
2021/10/21 01:19:14;;;;;;;3.45;1.85;;;18.80;72.20;;;;;;2395326;53;20969;-73
2021/10/21 01:21:42;;;;;;;3.72;1.90;;;18.80;72.30;;;;;;2373728;53;21885;-75
2021/10/21 01:24:09;;;;;;;4.53;2.20;;;18.80;72.40;;;;;;2338492;53;21075;-72
2021/10/21 01:26:35;;;;;;;4.10;2.28;;;18.80;72.60;;;;;;2391378;53;21096;-74
2021/10/21 01:29:02;;;;;;;3.87;1.92;;;18.80;72.70;;;;;;2327850;54;20989;-74
2021/10/21 01:31:29;;;;;;;3.03;1.77;;;18.90;72.90;;;;;;2363796;53;21036;-74
2021/10/21 01:33:57;;;;;;;4.55;1.87;;;18.90;73.00;;;;;;2369292;53;21030;-72
2021/10/21 01:36:23;;;;;;;3.65;1.80;;;18.90;73.00;;;;;;2422293;52;20943;-71
2021/10/21 01:38:51;;;;;;;5.15;2.37;;;19.00;73.20;;;;;;2348996;53;21374;-74
2021/10/21 01:41:17;;;;;;;4.07;2.20;;;19.00;73.20;;;;;;2332005;53;21030;-71
2021/10/21 01:43:45;;;;;;;3.53;1.77;;;19.00;73.20;;;;;;2359911;53;21475;-74
2021/10/21 01:46:12;;;;;;;4.70;2.40;;;19.00;73.20;;;;;;2327506;54;21077;-74
2021/10/21 01:48:38;;;;;;;5.57;2.28;;;19.00;73.10;;;;;;2310711;54;21034;-74
2021/10/21 01:51:05;;;;;;;4.30;2.50;;;19.00;73.00;;;;;;2329424;54;21009;-74
2021/10/21 01:53:33;;;;;;;4.12;2.30;;;19.10;72.90;;;;;;2368482;53;21007;-75
2021/10/21 01:56:00;;;;;;;4.93;2.25;;;19.10;72.90;;;;;;2331763;54;21039;-74
2021/10/21 01:58:27;;;;;;;4.37;2.42;;;19.10;72.90;;;;;;2343122;53;21031;-74
2021/10/21 02:00:54;;;;;;;3.28;2.10;;;19.10;72.70;;;;;;2442750;53;20954;-72
2021/10/21 02:03:20;;;;;;;4.12;2.40;;;19.10;72.70;;;;;;2325687;54;20984;-73
2021/10/21 02:05:47;;;;;;;5.55;2.30;;;19.10;72.50;;;;;;2326510;54;20977;-74
2021/10/21 02:08:14;;;;;;;4.87;2.35;;;19.10;72.50;;;;;;2321286;54;21772;-73
2021/10/21 02:10:41;;;;;;;3.70;2.00;;;19.10;72.20;;;;;;2325524;54;21371;-73
2021/10/21 02:13:07;;;;;;;2.90;1.70;;;19.20;72.40;;;;;;2351299;53;21822;-74
2021/10/21 02:15:43;;;;;;;3.42;1.80;;;19.20;72.20;;;;;;2444202;53;21038;-74
2021/10/21 02:18:09;;;;;;;3.62;2.00;;;19.20;71.60;;;;;;2324229;53;21057;-75
2021/10/21 02:20:36;;;;;;;5.72;2.30;;;19.20;72.00;;;;;;2410422;52;21024;-73
2021/10/21 02:23:02;;;;;;;4.12;1.62;;;19.20;72.00;;;;;;2355405;53;21037;-74
2021/10/21 02:25:29;;;;;;;5.22;2.20;;;19.20;71.90;;;;;;2343435;53;20939;-75
2021/10/21 02:27:55;;;;;;;2.95;1.62;;;19.20;71.60;;;;;;2350142;53;20983;-74
2021/10/21 02:30:22;;;;;;;4.35;1.87;;;19.20;71.70;;;;;;2376809;52;21050;-75
2021/10/21 02:32:49;;;;;;;4.15;1.33;;;19.20;71.80;;;;;;2358611;53;21862;-74
2021/10/21 02:35:15;;;;;;;3.08;1.65;;;19.20;71.70;;;;;;2468292;52;21090;-75
2021/10/21 02:37:45;;;;;;;3.40;1.73;;;19.20;71.60;;;;;;2371665;53;20974;-75
2021/10/21 02:40:12;;;;;;;3.62;1.80;;;19.20;71.60;;;;;;2354725;53;21002;-74
2021/10/21 02:42:39;;;;;;;3.85;1.60;;;19.20;71.60;;;;;;2391605;53;20954;-74
2021/10/21 02:45:06;;;;;;;4.93;1.80;;;19.20;71.60;;;;;;2391932;52;21822;-77
2021/10/21 02:47:33;;;;;;;3.12;1.50;;;19.10;71.20;;;;;;2415134;52;21535;-75
2021/10/21 02:49:59;;;;;;;3.05;1.60;;;19.10;71.30;;;;;;2463641;52;20991;-76
2021/10/21 02:52:26;;;;;;;6.37;1.50;;;19.00;71.00;;;;;;2468864;52;21030;-75
2021/10/21 02:54:52;;;;;;;2.72;1.40;;;19.00;71.00;;;;;;2347778;53;21013;-75
2021/10/21 02:57:19;;;;;;;3.17;1.20;;;18.90;71.10;;;;;;2356540;53;20957;-76
2021/10/21 02:59:45;;;;;;;3.87;1.40;;;18.80;71.20;;;;;;2526764;52;22001;-76
2021/10/21 03:02:12;;;;;;;2.90;1.37;;;18.70;71.40;;;;;;2348933;53;21027;-75
2021/10/21 03:04:38;;;;;;;2.22;1.10;;;18.60;71.50;;;;;;2464183;52;21502;-75
2021/10/21 03:07:05;;;;;;;2.83;1.20;;;18.50;71.60;;;;;;2345718;53;21468;-75
2021/10/21 03:09:32;;;;;;;3.50;1.02;;;18.50;72.00;;;;;;2325952;54;20972;-74
2021/10/21 03:12:00;;;;;;;2.72;1.20;;;18.40;71.70;;;;;;2410268;53;20966;-75
2021/10/21 03:14:26;;;;;;;2.78;1.42;;;18.40;71.70;;;;;;2399225;53;21087;-75
2021/10/21 03:17:25;;;;;;;3.87;0.90;;;18.40;71.90;;;;;;2334232;54;20969;-75
2021/10/21 03:19:52;;;;;;;3.33;0.70;;;18.40;71.40;;;;;;2399623;52;21057;-74
2021/10/21 03:22:19;;;;;;;3.10;0.60;;;18.40;71.80;;;;;;2332387;54;21057;-75
2021/10/21 03:24:45;;;;;;;3.55;0.85;;;18.30;71.60;;;;;;2500024;52;20964;-75
2021/10/21 03:27:13;;;;;;;1.55;0.60;;;18.30;70.80;;;;;;2331594;53;20982;-75
2021/10/21 03:29:39;;;;;;;1.77;0.57;;;18.30;69.80;;;;;;2338021;53;21001;-75
2021/10/21 03:32:06;;;;;;;2.20;0.57;;;18.30;69.10;;;;;;2328525;54;20940;-76
2021/10/21 03:34:33;;;;;;;4.43;0.70;;;18.20;67.50;;;;;;2323599;54;21032;-75
2021/10/21 03:37:00;;;;;;;3.03;0.80;;;18.20;66.50;;;;;;2347250;53;20949;-76
2021/10/21 03:39:27;;;;;;;2.10;0.60;;;18.20;65.90;;;;;;2326655;54;20957;-76
2021/10/21 03:41:54;;;;;;;1.98;0.57;;;18.20;65.40;;;;;;2322651;54;21808;-76
2021/10/21 03:44:20;;;;;;;2.15;0.50;;;18.10;64.30;;;;;;2334002;53;20972;-76
2021/10/21 03:46:50;;;;;;;4.03;0.77;;;18.10;64.90;;;;;;2369668;53;20951;-76
2021/10/21 03:49:17;;;;;;;3.33;0.65;;;18.10;64.90;;;;;;2377971;53;21056;-75
2021/10/21 03:51:43;;;;;;;1.95;0.50;;;18.10;65.30;;;;;;2350711;53;21459;-75
2021/10/21 03:54:13;;;;;;;2.55;0.60;;;18.10;65.30;;;;;;2352039;53;21043;-76
2021/10/21 03:56:44;;;;;;;3.87;0.80;;;18.10;65.50;;;;;;2500049;52;20942;-74
2021/10/21 03:59:10;;;;;;;5.40;2.20;;;18.10;64.20;;;;;;2404103;52;21502;-74
2021/10/21 04:01:37;;;;;;;4.03;1.20;;;18.00;64.30;;;;;;2354001;53;21133;-76
2021/10/21 04:04:06;;;;;;;3.85;1.30;;;18.00;64.30;;;;;;2559623;52;20919;-75
2021/10/21 04:06:32;;;;;;;7.43;1.98;;;17.90;64.30;;;;;;2329834;54;20995;-75
2021/10/21 04:09:00;;;;;;;4.68;1.55;;;18.00;64.50;;;;;;2354666;54;20976;-75
2021/10/21 04:11:26;;;;;;;4.25;0.70;;;17.90;64.40;;;;;;2326202;54;21049;-75
2021/10/21 04:13:53;;;;;;;3.80;0.82;;;17.90;64.10;;;;;;2370206;53;21451;-77
2021/10/21 04:16:19;;;;;;;3.37;0.70;;;17.80;63.50;;;;;;2348197;53;21832;-74
2021/10/21 04:18:46;;;;;;;4.47;1.08;;;17.80;64.00;;;;;;2442981;52;21015;-76
2021/10/21 04:21:14;;;;;;;2.87;0.70;;;17.80;63.70;;;;;;2338483;54;20999;-77
2021/10/21 04:23:41;;;;;;;8.00;1.27;;;17.80;63.60;;;;;;2322357;54;20957;-75
2021/10/21 04:26:07;;;;;;;5.07;0.80;;;17.70;63.10;;;;;;2343819;54;20921;-76
2021/10/21 04:28:34;;;;;;;6.82;1.27;;;17.70;63.10;;;;;;2333158;53;21099;-75
2021/10/21 04:31:01;;;;;;;3.47;0.90;;;17.70;62.90;;;;;;2321295;54;20973;-77
2021/10/21 04:33:27;;;;;;;3.62;1.25;;;17.70;63.20;;;;;;2405077;53;20945;-75
2021/10/21 04:35:54;;;;;;;4.07;0.90;;;17.70;63.00;;;;;;2354412;53;21006;-75
2021/10/21 04:38:20;;;;;;;5.80;1.00;;;17.60;62.30;;;;;;2352835;53;22083;-76
2021/10/21 04:40:48;;;;;;;2.65;0.70;;;17.60;62.10;;;;;;2343294;53;20936;-76
2021/10/21 04:43:14;;;;;;;4.75;1.00;;;17.60;62.90;;;;;;2343574;53;20923;-76
2021/10/21 04:45:41;;;;;;;4.55;1.00;;;17.60;62.40;;;;;;2323585;54;20965;-74
2021/10/21 04:48:10;;;;;;;5.87;0.90;;;17.60;62.40;;;;;;2365715;53;21062;-75
2021/10/21 04:50:37;;;;;;;4.05;1.08;;;17.70;61.80;;;;;;2358980;53;20978;-75
2021/10/21 04:53:03;;;;;;;7.25;1.10;;;17.60;61.60;;;;;;2358876;53;20993;-77
2021/10/21 04:55:35;;;;;;;6.65;1.20;;;17.60;62.30;;;;;;2344221;53;21002;-76
2021/10/21 04:58:03;;;;;;;5.22;0.73;;;17.60;62.10;;;;;;2402312;52;21114;-78
2021/10/21 05:00:30;;;;;;;7.00;0.80;;;17.70;62.60;;;;;;2404759;53;21864;-77
2021/10/21 05:02:57;;;;;;;5.30;0.88;;;17.60;62.20;;;;;;2360406;53;21030;-76
2021/10/21 05:05:23;;;;;;;4.25;0.85;;;17.60;62.80;;;;;;2328457;53;21093;-77
2021/10/21 05:07:50;;;;;;;4.43;0.98;;;17.60;62.90;;;;;;2350977;53;20978;-75
2021/10/21 05:10:16;;;;;;;6.82;0.90;;;17.60;62.60;;;;;;2354243;53;21506;-74
2021/10/21 05:12:43;;;;;;;3.92;0.50;;;17.60;63.00;;;;;;2349301;53;20947;-75
2021/10/21 05:15:11;;;;;;;5.05;0.80;;;17.60;63.50;;;;;;2349281;53;20943;-76
2021/10/21 05:17:37;;;;;;;4.30;0.80;;;17.60;63.30;;;;;;2381096;52;20943;-77
2021/10/21 05:20:06;;;;;;;7.03;1.30;;;17.60;63.50;;;;;;2350297;53;21889;-74
2021/10/21 05:22:33;;;;;;;5.97;0.93;;;17.60;63.00;;;;;;2434000;53;21520;-75
2021/10/21 05:25:00;;;;;;;7.15;1.17;;;17.60;62.30;;;;;;2357242;53;20995;-77
2021/10/21 05:27:26;;;;;;;2.97;0.62;;;17.60;62.60;;;;;;2387532;53;21097;-74
2021/10/21 05:29:53;;;;;;;5.80;1.05;;;17.60;62.90;;;;;;2363222;53;20974;-77
2021/10/21 05:32:19;;;;;;;4.80;0.98;;;17.60;62.40;;;;;;2383204;53;21030;-75
2021/10/21 05:34:47;;;;;;;6.78;1.60;;;17.60;62.40;;;;;;2362872;53;20958;-77
2021/10/21 05:37:13;;;;;;;4.18;1.35;;;17.60;62.60;;;;;;2349614;53;20985;-75
2021/10/21 05:39:39;;;;;;;3.85;1.10;;;17.60;63.80;;;;;;2369185;53;21491;-74
2021/10/21 05:42:06;;;;;;;4.22;1.00;;;17.60;62.00;;;;;;2348949;53;20998;-76
2021/10/21 05:44:36;;;;;;;4.93;0.73;;;17.60;62.20;;;;;;2345685;53;20963;-76
2021/10/21 05:47:02;;;;;;;7.30;1.12;;;17.60;62.00;;;;;;2350493;54;21035;-78
2021/10/21 05:49:29;;;;;;;5.65;1.42;;;17.60;61.30;;;;;;2323647;54;20978;-78
2021/10/21 05:51:56;;;;;;;6.50;1.10;;;17.60;60.60;;;;;;2327793;54;20999;-76
2021/10/21 05:54:25;;;;;;;9.75;1.10;;;17.70;60.80;;;;;;2349080;53;21516;-76
2021/10/21 05:56:52;;;;;;;7.68;1.45;;;17.60;61.90;;;;;;2358960;53;21402;-77
2021/10/21 05:59:18;;;;;;;5.78;1.25;;;17.60;60.60;;;;;;2395039;52;20997;-74
2021/10/21 06:01:44;;;;;;;4.78;0.90;;;17.70;60.20;;;;;;2322644;53;20945;-75
2021/10/21 06:04:11;;;;;;;5.72;1.33;;;17.70;60.20;;;;;;2384194;53;21007;-72
2021/10/21 06:06:38;;;;;;;6.30;1.33;;;17.70;59.40;;;;;;2372645;53;21121;-76
2021/10/21 06:09:05;;;;;;;5.40;0.98;;;17.70;59.80;;;;;;2342750;53;20965;-75
2021/10/21 06:11:34;;;;;;;4.97;0.98;;;17.70;60.60;;;;;;2320632;54;21064;-75
2021/10/21 06:14:02;;;;;;;6.90;1.70;;;17.70;60.50;;;;;;2321282;53;20998;-75
2021/10/21 06:16:29;;;;;;;5.82;1.10;;;17.70;60.60;;;;;;2356002;53;21021;-77
2021/10/21 06:18:55;;;;;;;6.93;1.55;;;17.70;60.70;;;;;;2398693;53;20978;-78
2021/10/21 06:21:23;;;;;;;5.75;1.23;;;17.70;59.20;;;;;;2353865;53;21539;-75
2021/10/21 06:23:51;;;;;;;5.03;1.17;;;17.70;60.00;;;;;;2346782;53;21727;-76
2021/10/21 06:26:18;;;;;;;5.62;0.88;;;17.70;60.70;;;;;;2417614;52;21040;-77
2021/10/21 06:28:47;;;;;;;7.20;1.20;;;17.70;60.10;;;;;;2320169;54;20917;-77
2021/10/21 06:31:13;;;;;;;5.10;1.08;;;17.70;60.20;;;;;;2323539;54;21044;-77
2021/10/21 06:33:40;;;;;;;4.55;1.00;;;17.70;60.60;;;;;;2341932;54;21957;-75
2021/10/21 06:36:10;;;;;;;5.28;1.10;;;17.70;59.90;;;;;;2348232;53;21098;-75
2021/10/21 06:38:36;;;;;;;5.68;1.23;;;17.70;59.70;;;;;;2404168;53;20942;-75
2021/10/21 06:41:03;;;;;;;6.03;0.98;;;17.70;60.40;;;;;;2350838;53;20986;-72
2021/10/21 06:43:30;;;;;;;5.60;0.90;;;17.70;59.50;;;;;;2347139;53;20986;-75
2021/10/21 06:46:00;;;;;;;4.40;0.77;;;17.70;60.00;;;;;;2346651;53;21040;-74
2021/10/21 06:48:29;;;;;;;3.28;0.70;;;17.70;60.90;;;;;;2341364;53;21877;-78
2021/10/21 06:50:56;;;;;;;6.00;0.82;;;17.70;60.70;;;;;;2345396;53;21048;-76
2021/10/21 06:53:22;;;;;;;4.32;0.77;;;17.60;60.70;;;;;;2391435;53;20936;-77
2021/10/21 06:55:48;;;;;;;4.57;0.85;;;17.60;60.70;;;;;;2337647;53;20953;-76
2021/10/21 06:58:17;;;;;;;3.40;0.70;;;17.60;60.80;;;;;;2363178;53;20949;-78
2021/10/21 07:00:44;;;;;;;4.20;1.02;;;17.60;60.40;;;;;;2372819;52;21067;-76
2021/10/21 07:03:11;;;;;;;3.87;0.40;;;17.60;60.40;;;;;;2382102;53;20990;-75
2021/10/21 07:05:42;;;;;;;3.35;0.70;;;17.50;60.30;;;;;;2354990;53;21510;-75
2021/10/21 07:08:12;;;;;;;2.30;0.50;;;17.50;59.30;;;;;;2374422;53;20999;-75
2021/10/21 07:10:39;;;;;;;2.20;0.50;;;17.50;59.30;;;;;;2353311;52;20957;-75
2021/10/21 07:13:05;;;;;;;2.05;0.57;;;17.50;60.10;;;;;;2327698;54;21473;-75
2021/10/21 07:15:33;;;;;;;3.28;0.70;;;17.50;60.50;;;;;;2319671;54;20989;-75
2021/10/21 07:17:59;;;;;;;2.83;0.68;;;17.50;60.40;;;;;;2351826;53;21127;-74
2021/10/21 07:20:26;;;;;;;3.47;0.68;;;17.50;60.20;;;;;;2326166;54;21817;-75
2021/10/21 07:22:52;;;;;;;2.35;0.60;;;17.40;60.00;;;;;;2377539;53;20927;-75
2021/10/21 07:25:19;;;;;;;2.12;0.60;;;17.40;59.60;;;;;;2325825;54;20980;-75
2021/10/21 07:27:45;;;;;;;3.03;0.73;;;17.40;60.80;;;;;;2329989;54;20964;-76
2021/10/21 07:30:12;;;;;;;1.75;0.52;;;17.40;59.80;;;;;;2442971;53;20989;-75
2021/10/21 07:32:38;;;;;;;2.03;0.52;;;17.40;60.10;;;;;;2347795;53;20957;-74
2021/10/21 07:35:05;;;;;;;2.70;0.47;;;17.40;60.50;;;;;;2420191;53;21924;-74
2021/10/21 07:37:31;;;;;;;7.65;1.02;;;17.40;60.20;;;;;;2324353;54;21023;-76
2021/10/21 07:39:58;;;;;;;1.60;0.55;;;17.30;60.10;;;;;;2333493;54;21715;-77
2021/10/21 07:42:24;;;;;;;5.37;0.85;;;17.40;60.30;;;;;;2322620;53;21467;-76
2021/10/21 07:44:51;;;;;;;3.17;0.80;;;17.40;60.70;;;;;;2338948;53;20963;-75
2021/10/21 07:47:18;;;;;;;2.95;0.70;;;17.40;59.90;;;;;;2353380;53;20978;-76
2021/10/21 07:49:44;;;;;;;5.30;0.90;;;17.40;59.80;;;;;;2501781;52;20975;-75
2021/10/21 07:52:11;;;;;;;3.60;0.82;;;17.40;60.00;;;;;;2348087;53;20975;-74
2021/10/21 07:54:37;;;;;;;5.25;1.25;;;17.40;60.00;;;;;;2359925;53;20899;-76
2021/10/21 07:57:06;;;;;;;2.92;0.60;;;17.40;60.00;;;;;;2353619;53;21085;-75
2021/10/21 07:59:36;;;;;;;5.40;0.80;;;17.40;59.60;;;;;;2348879;53;20982;-75
2021/10/21 08:02:02;;;;;;;2.08;0.70;;;17.40;60.20;;;;;;2361139;53;21038;-74
2021/10/21 08:04:31;;;;;;;2.72;0.70;;;17.40;60.90;;;;;;2347543;53;21023;-74
2021/10/21 08:06:58;;;;;;;2.62;0.70;;;17.40;60.50;;;;;;2403770;52;20971;-74
2021/10/21 08:09:25;;;;;;;5.53;0.70;;;17.40;60.60;;;;;;2351704;53;21004;-76
2021/10/21 08:11:53;;;;;;;2.53;0.50;;;17.50;60.00;;;;;;2331930;54;20972;-74
2021/10/21 08:14:19;;;;;;;1.77;0.62;;;17.50;60.70;;;;;;2330012;54;21045;-74
2021/10/21 08:16:46;;;;;;;1.62;0.40;;;17.40;60.50;;;;;;2348537;53;21026;-75
2021/10/21 08:19:16;;;;;;;1.23;0.40;;;17.50;60.70;;;;;;2394581;53;20978;-74
2021/10/21 08:21:42;;;;;;;2.70;0.40;;;17.50;60.80;;;;;;2359871;53;21060;-74
2021/10/21 08:24:09;;;;;;;3.33;0.50;;;17.50;61.00;;;;;;2337950;53;20913;-76
2021/10/21 08:26:37;;;;;;;2.10;0.60;;;17.50;61.00;;;;;;2350840;54;21021;-75
2021/10/21 08:29:06;;;;;;;3.33;0.68;;;17.50;61.10;;;;;;2388009;53;20948;-75
2021/10/21 08:31:32;;;;;;;2.40;0.40;;;17.50;60.60;;;;;;2350780;53;21082;-75
2021/10/21 08:33:59;;;;;;;3.25;0.70;;;17.40;60.50;;;;;;2413808;53;21029;-75
2021/10/21 08:36:28;;;;;;;2.30;0.60;;;17.40;61.20;;;;;;2325083;54;21008;-75
2021/10/21 08:38:54;;;;;;;2.42;0.68;;;17.40;61.50;;;;;;2325652;54;20945;-74
2021/10/21 08:41:21;;;;;;;2.92;0.85;;;17.40;60.80;;;;;;2325141;54;21086;-74
2021/10/21 08:43:48;;;;;;;2.08;0.60;;;17.40;61.20;;;;;;2337162;53;20929;-75
2021/10/21 08:46:17;;;;;;;3.25;0.80;;;17.40;61.50;;;;;;2325579;54;21409;-75
2021/10/21 08:48:45;;;;;;;2.03;0.60;;;17.40;61.70;;;;;;2329070;54;20939;-75
2021/10/21 08:51:12;;;;;;;2.28;0.45;;;17.40;61.90;;;;;;2321704;54;20974;-74
2021/10/21 08:53:38;;;;;;;1.87;0.55;;;17.40;62.10;;;;;;2368284;52;20947;-75
2021/10/21 08:56:05;;;;;;;1.70;0.43;;;17.40;62.10;;;;;;2319602;54;20961;-75
2021/10/21 08:58:33;;;;;;;2.00;0.70;;;17.40;62.10;;;;;;2356552;53;1379644;-75
2021/10/21 09:01:09;;;;;;;2.62;0.50;;;17.40;62.00;;;;;;2338727;54;21015;-75
2021/10/21 09:04:15;;;;;;;2.05;0.50;;;17.40;62.10;;;;;;2326867;54;20953;-75
2021/10/21 09:12:26;;;;;;;;;;;17.40;61.70;;;;;;2493911;52;21000;-74
2021/10/21 09:14:53;;;;;;;2.70;0.50;;;17.30;61.80;;;;;;2356553;53;20200;-75
2021/10/21 09:17:26;;;;;;;1.62;0.30;;;17.30;62.60;;;;;;2454760;53;20975;-74
2021/10/21 09:19:54;;;;;;;0.70;0.30;;;17.20;61.60;;;;;;2352018;53;20969;-75
2021/10/21 09:22:34;;;;;;;1.62;0.30;;;17.10;62.10;;;;;;2349816;53;20978;-75
2021/10/21 09:25:10;;;;;;;1.60;0.40;;;17.10;62.00;;;;;;2354103;53;20997;-78
2021/10/21 09:27:38;;;;;;;1.50;0.30;;;17.00;61.30;;;;;;2357157;53;20983;-76
2021/10/21 09:30:06;;;;;;;2.30;0.30;;;17.00;62.10;;;;;;2346056;53;20981;-74
2021/10/21 09:32:35;;;;;;;0.62;0.20;;;16.90;62.30;;;;;;2328612;54;20975;-75
2021/10/21 09:35:03;;;;;;;0.70;0.22;;;16.90;62.60;;;;;;2322065;54;20953;-74
2021/10/21 09:37:41;;;;;;;1.65;0.37;;;16.80;62.30;;;;;;2321451;54;21001;-75
2021/10/21 09:40:21;;;;;;;2.37;0.40;;;16.80;62.10;;;;;;2341810;53;21101;-75
2021/10/21 09:42:55;;;;;;;2.22;0.40;;;16.80;61.50;;;;;;2427858;53;21551;-74
2021/10/21 09:45:23;;;;;;;1.48;0.57;;;16.70;61.80;;;;;;2339489;54;20993;-77
2021/10/21 09:48:02;;;;;;;2.33;0.52;;;16.60;61.70;;;;;;2337605;54;20969;-75
2021/10/21 09:50:34;;;;;;;1.95;0.47;;;16.60;61.00;;;;;;2341970;53;21035;-76
2021/10/21 09:53:22;;;;;;;2.58;0.37;;;16.50;61.50;;;;;;2320856;54;20953;-74
2021/10/21 09:56:07;;;;;;;1.50;0.28;;;16.40;61.00;;;;;;2321514;54;21059;-75
2021/10/21 09:58:35;;;;;;;1.30;0.50;;;16.40;61.40;;;;;;2364933;53;20921;-74
2021/10/21 10:01:09;;;;;;;0.98;0.22;;;16.30;62.40;;;;;;2324236;54;21041;-74
2021/10/21 10:03:50;;;;;;;1.10;0.35;;;16.20;62.10;;;;;;2322346;53;21024;-74
2021/10/21 10:06:17;;;;;;;1.62;0.40;;;16.20;62.50;;;;;;2322435;53;21868;-74
2021/10/21 10:08:44;;;;;;;3.72;0.82;;;16.20;63.60;;;;;;2313047;53;20974;-74
2021/10/21 10:11:20;;;;;;;2.83;1.12;;;16.30;64.00;;;;;;2318131;55;21483;-78
2021/10/21 10:13:47;;;;;;;2.85;0.88;;;16.30;64.30;;;;;;2406282;53;21453;-74
2021/10/21 10:16:16;;;;;;;2.78;0.60;;;16.40;64.60;;;;;;2318375;54;21055;-74
2021/10/21 10:18:45;;;;;;;2.08;0.55;;;16.50;64.60;;;;;;2327702;53;21014;-74
2021/10/21 10:21:32;;;;;;;4.28;0.73;;;16.50;64.80;;;;;;2317759;55;20954;-78
2021/10/21 10:24:03;;;;;;;2.75;0.68;;;16.60;64.40;;;;;;2358590;53;21007;-77
2021/10/21 10:26:40;;;;;;;3.28;0.60;;;16.70;65.70;;;;;;2341282;53;21008;-75
2021/10/21 10:29:07;;;;;;;2.50;0.55;;;16.80;65.20;;;;;;2316508;54;21035;-76
2021/10/21 10:31:46;;;;;;;1.98;0.60;;;17.00;66.30;;;;;;2325141;54;21012;-74
2021/10/21 10:36:01;;;;;;;2.22;0.50;;;17.10;66.20;;;;;;2341575;53;20944;-76
2021/10/21 10:38:38;;;;;;;2.42;0.60;;;17.30;65.00;;;;;;2343671;53;21875;-76
2021/10/21 10:41:05;;;;;;;1.48;0.40;;;17.50;65.60;;;;;;2328405;53;21018;-77
2021/10/21 10:43:40;;;;;;;2.97;0.62;;;17.60;66.30;;;;;;2351188;54;21058;-77
2021/10/21 10:46:10;;;;;;;2.00;0.70;;;17.70;65.30;;;;;;2346271;53;21520;-74
2021/10/21 10:48:53;;;;;;;3.28;1.10;;;17.80;66.10;;;;;;2343667;52;21569;-79
2021/10/21 10:51:54;;;;;;;2.65;1.10;;;17.90;64.60;;;;;;2334419;53;21534;-76
2021/10/21 10:54:55;;;;;;;2.47;0.50;;;17.90;65.30;;;;;;2315907;54;20928;-74
2021/10/21 10:58:03;;;;;;;2.30;0.60;;;18.10;63.90;;;;;;2337265;53;20996;-74
2021/10/21 11:01:27;;;;;;;2.97;0.52;;;18.10;63.80;;;;;;2317102;53;20968;-76
2021/10/21 11:03:53;;;;;;;2.83;0.60;;;18.20;63.60;;;;;;2339382;53;20981;-77
2021/10/21 11:06:25;;;;;;;2.10;0.40;;;18.30;65.70;;;;;;2335446;54;20945;-75
2021/10/21 11:09:02;;;;;;;1.37;0.28;;;18.30;64.80;;;;;;2315977;53;21028;-77
2021/10/21 11:11:51;;;;;;;1.25;0.30;;;18.40;65.00;;;;;;2305822;54;21033;-74
2021/10/21 11:14:36;;;;;;;1.67;0.40;;;18.40;63.40;;;;;;2399553;54;21581;-75
2021/10/21 11:17:03;;;;;;;0.60;0.20;;;18.40;64.50;;;;;;2340938;53;20965;-75
2021/10/21 11:20:06;;;;;;;1.52;0.40;;;18.50;64.90;;;;;;2354060;52;21002;-75
2021/10/21 11:22:37;;;;;;;2.30;0.70;;;18.40;62.70;;;;;;2324395;54;21048;-74
2021/10/21 11:25:07;;;;;;;3.60;0.50;;;18.40;64.30;;;;;;2316619;54;20952;-76
2021/10/21 11:27:38;;;;;;;2.08;0.60;;;18.30;63.90;;;;;;2393334;53;21051;-77
2021/10/21 11:30:26;;;;;;;1.17;0.50;;;18.30;63.20;;;;;;2321841;53;20973;-77
2021/10/21 11:33:03;;;;;;;2.53;0.73;;;18.30;63.20;;;;;;2371040;53;21084;-77
2021/10/21 11:35:31;;;;;;;2.53;1.00;;;18.30;63.80;;;;;;2337909;54;20976;-75
2021/10/21 11:38:04;;;;;;;2.15;0.80;;;18.20;62.80;;;;;;2316410;54;20963;-75
2021/10/21 11:40:36;;;;;;;3.55;0.90;;;18.30;63.00;;;;;;2320195;54;21816;-78
2021/10/21 11:43:04;;;;;;;2.72;0.70;;;18.30;63.20;;;;;;2380239;53;20991;-77
2021/10/21 11:45:34;;;;;;;1.85;0.40;;;18.30;63.00;;;;;;2435882;53;21005;-75
2021/10/21 11:48:05;;;;;;;2.58;0.80;;;18.30;63.30;;;;;;2396432;53;20956;-76
2021/10/21 11:50:35;;;;;;;1.67;0.60;;;18.30;62.70;;;;;;2334283;53;20937;-76
2021/10/21 11:53:02;;;;;;;3.10;0.57;;;18.30;62.40;;;;;;2339108;54;21005;-76
2021/10/21 11:55:29;;;;;;;2.70;0.70;;;18.30;62.50;;;;;;2317285;54;20940;-75
2021/10/21 11:57:56;;;;;;;2.33;0.40;;;18.30;62.40;;;;;;2315167;55;20997;-76
2021/10/21 12:00:26;;;;;;;3.35;0.50;;;18.30;62.50;;;;;;2317815;54;21628;-74
2021/10/21 12:02:56;;;;;;;1.67;0.40;;;18.30;62.30;;;;;;2481237;53;20953;-74
2021/10/21 12:05:34;;;;;;;2.35;0.90;;;18.30;62.30;;;;;;2314875;54;21879;-79
2021/10/21 12:08:00;;;;;;;3.58;1.00;;;18.30;61.70;;;;;;2388844;53;20975;-74
2021/10/21 12:10:35;;;;;;;3.78;1.48;;;18.40;62.80;;;;;;2345160;53;20949;-76
2021/10/21 12:13:06;;;;;;;2.83;0.90;;;18.40;62.60;;;;;;2327267;53;20995;-75
2021/10/21 12:15:34;;;;;;;2.72;0.55;;;18.50;63.00;;;;;;2316934;53;21020;-75
2021/10/21 12:18:07;;;;;;;3.25;0.60;;;18.50;63.10;;;;;;2353940;53;21074;-78
2021/10/21 12:20:52;;;;;;;2.53;0.70;;;18.60;62.80;;;;;;2323710;53;21019;-75
2021/10/21 12:23:30;;;;;;;1.85;0.60;;;18.70;62.40;;;;;;2299189;54;21540;-75
2021/10/21 12:26:04;;;;;;;3.53;0.70;;;18.70;62.30;;;;;;2341343;53;20940;-78
2021/10/21 12:28:41;;;;;;;1.83;0.40;;;18.80;62.50;;;;;;2454754;52;21045;-75
2021/10/21 12:32:23;;;;;;;2.17;0.50;;;18.90;61.90;;;;;;2347802;53;20957;-77
2021/10/21 12:34:51;;;;;;;2.40;0.60;;;19.00;60.90;;;;;;2358523;53;21050;-75
2021/10/21 12:37:22;;;;;;;1.83;0.47;;;19.10;63.00;;;;;;2349539;53;21447;-78
2021/10/21 12:39:49;;;;;;;2.40;0.45;;;19.10;62.40;;;;;;2434646;52;21030;-74
2021/10/21 12:42:23;;;;;;;2.95;0.57;;;19.20;62.40;;;;;;2354153;53;21048;-74
2021/10/21 12:45:00;;;;;;;2.28;0.40;;;19.30;61.40;;;;;;2400695;53;21650;-75
2021/10/21 12:47:31;;;;;;;3.12;0.70;;;19.30;61.40;;;;;;2348554;53;20993;-75
2021/10/21 12:50:00;;;;;;;1.92;0.50;;;19.40;61.70;;;;;;2426654;52;20978;-73
2021/10/21 12:52:40;;;;;;;1.55;0.60;;;19.40;62.10;;;;;;2334808;53;20935;-75
2021/10/21 12:55:40;;;;;;;2.50;0.55;;;19.50;61.20;;;;;;2384930;53;21025;-76
2021/10/21 12:58:09;;;;;;;4.37;0.73;;;19.60;59.70;;;;;;2361690;53;21581;-76
2021/10/21 13:00:46;;;;;;;1.62;0.70;;;19.70;61.20;;;;;;2319840;53;21520;-74
2021/10/21 13:03:22;;;;;;;3.22;0.73;;;19.80;58.40;;;;;;2315239;53;21015;-78
2021/10/21 13:05:50;;;;;;;3.75;0.50;;;19.80;57.20;;;;;;2374353;53;21784;-77
2021/10/21 13:08:16;;;;;;;4.68;0.73;;;19.90;58.40;;;;;;2362284;53;20944;-75